createdAt,value
2022-09-16T00:00:33.351Z,99.90
2022-09-16T00:03:00.087Z,99.90
2022-09-16T00:05:26.816Z,99.90
2022-09-16T00:07:54.444Z,99.90
2022-09-16T00:10:21.653Z,99.90
2022-09-16T00:12:49.367Z,99.90
2022-09-16T00:15:16.366Z,99.90
2022-09-16T00:17:43.095Z,99.90
2022-09-16T00:20:10.672Z,99.90
2022-09-16T00:22:37.394Z,99.90
2022-09-16T00:25:04.287Z,99.90
2022-09-16T00:27:31.167Z,99.90
2022-09-16T00:29:57.825Z,99.90
2022-09-16T00:32:25.061Z,99.90
2022-09-16T00:34:52.255Z,99.90
2022-09-16T00:37:19.006Z,99.90
2022-09-16T00:39:49.306Z,99.90
2022-09-16T00:42:17.097Z,99.90
2022-09-16T00:45:04.798Z,99.90
2022-09-16T00:47:46.289Z,99.90
2022-09-16T00:50:25.569Z,99.90
2022-09-16T00:52:53.946Z,99.90
2022-09-16T00:55:25.566Z,99.90
2022-09-16T00:57:55.122Z,99.90
2022-09-16T01:00:21.871Z,99.90
2022-09-16T01:02:50.296Z,99.90
2022-09-16T01:05:22.134Z,99.90
2022-09-16T01:07:51.017Z,99.90
2022-09-16T01:10:23.168Z,99.90
2022-09-16T01:13:02.185Z,99.90
2022-09-16T01:15:52.661Z,99.90
2022-09-16T01:18:46.793Z,99.90
2022-09-16T01:21:34.085Z,99.90
2022-09-16T01:24:04.103Z,99.90
2022-09-16T01:26:37.297Z,99.90
2022-09-16T01:29:41.653Z,99.90
2022-09-16T01:32:16.395Z,99.90
2022-09-16T01:34:52.414Z,99.90
2022-09-16T01:37:44.211Z,99.90
2022-09-16T01:40:33.558Z,99.90
2022-09-16T01:43:22.487Z,99.90
2022-09-16T01:45:59.860Z,99.90
2022-09-16T01:48:44.375Z,99.90
2022-09-16T01:51:33.247Z,99.90
2022-09-16T01:54:08.434Z,99.90
2022-09-16T01:56:53.548Z,99.90
2022-09-16T01:59:48.663Z,99.90
2022-09-16T02:02:26.146Z,99.90
2022-09-16T02:04:56.531Z,99.90
2022-09-16T02:07:29.448Z,99.90
2022-09-16T02:10:01.141Z,99.90
2022-09-16T02:12:34.166Z,99.90
2022-09-16T02:15:07.619Z,99.90
2022-09-16T02:17:39.010Z,99.90
2022-09-16T02:20:13.143Z,99.90
2022-09-16T02:22:51.899Z,99.90
2022-09-16T02:25:21.741Z,99.90
2022-09-16T02:27:50.223Z,99.90
2022-09-16T02:30:20.556Z,99.90
2022-09-16T02:33:00.177Z,99.90
2022-09-16T02:35:28.935Z,99.90
2022-09-16T02:38:02.909Z,99.90
2022-09-16T02:40:34.351Z,99.90
2022-09-16T02:43:01.537Z,99.90
2022-09-16T02:45:52.791Z,99.90
2022-09-16T02:48:32.289Z,99.90
2022-09-16T02:51:16.809Z,99.90
2022-09-16T02:54:06.012Z,99.90
2022-09-16T02:56:36.713Z,99.90
2022-09-16T02:59:06.115Z,99.90
2022-09-16T03:01:38.240Z,99.90
2022-09-16T03:04:06.571Z,99.90
2022-09-16T03:06:36.124Z,99.90
2022-09-16T03:09:08.320Z,99.90
2022-09-16T03:11:56.521Z,99.90
2022-09-16T03:14:38.072Z,99.90
2022-09-16T03:17:16.664Z,99.90
2022-09-16T03:19:55.316Z,99.90
2022-09-16T03:22:40.668Z,99.90
2022-09-16T03:25:32.597Z,99.90
2022-09-16T03:28:09.947Z,99.90
2022-09-16T03:30:43.548Z,99.90
2022-09-16T03:33:19.074Z,99.90
2022-09-16T03:35:49.281Z,99.90
2022-09-16T03:38:18.872Z,99.90
2022-09-16T03:40:48.249Z,99.90
2022-09-16T03:43:16.662Z,99.90
2022-09-16T03:45:43.930Z,99.90
2022-09-16T03:48:12.349Z,99.90
2022-09-16T03:50:39.635Z,99.90
2022-09-16T03:53:06.357Z,99.90
2022-09-16T03:55:33.148Z,99.90
2022-09-16T03:57:59.946Z,99.90
2022-09-16T04:00:28.869Z,99.90
2022-09-16T04:02:55.990Z,99.90
2022-09-16T04:05:22.898Z,99.90
2022-09-16T04:07:50.024Z,99.90
2022-09-16T04:10:16.936Z,99.90
2022-09-16T04:12:43.636Z,99.90
2022-09-16T04:15:16.496Z,99.90
2022-09-16T04:17:43.182Z,99.90
2022-09-16T04:20:10.086Z,99.90
2022-09-16T04:22:36.865Z,99.90
2022-09-16T04:25:04.567Z,99.90
2022-09-16T04:27:31.396Z,99.90
2022-09-16T04:29:58.780Z,99.90
2022-09-16T04:32:25.696Z,99.90
2022-09-16T04:34:52.477Z,99.90
2022-09-16T04:37:19.196Z,99.90
2022-09-16T04:39:46.795Z,99.90
2022-09-16T04:42:13.488Z,99.90
2022-09-16T04:44:40.178Z,99.90
2022-09-16T04:47:06.949Z,99.90
2022-09-16T04:49:33.620Z,99.90
2022-09-16T04:52:00.348Z,99.90
2022-09-16T04:54:27.805Z,99.90
2022-09-16T04:56:54.599Z,99.90
2022-09-16T04:59:21.693Z,99.90
2022-09-16T05:01:48.522Z,99.90
2022-09-16T05:04:15.511Z,99.90
2022-09-16T05:06:42.333Z,99.90
2022-09-16T05:09:11.453Z,99.90
2022-09-16T05:11:40.015Z,99.90
2022-09-16T05:14:10.358Z,99.90
2022-09-16T05:16:37.016Z,99.90
2022-09-16T05:19:04.907Z,99.90
2022-09-16T05:21:34.857Z,99.90
2022-09-16T05:24:03.528Z,99.90
2022-09-16T05:26:32.676Z,99.90
2022-09-16T05:29:08.642Z,99.90
2022-09-16T05:31:37.965Z,99.90
2022-09-16T05:34:08.033Z,99.90
2022-09-16T05:36:39.095Z,99.90
2022-09-16T05:39:24.102Z,99.90
2022-09-16T05:41:55.972Z,99.90
2022-09-16T05:44:22.998Z,99.90
2022-09-16T05:46:50.172Z,99.90
2022-09-16T05:49:20.986Z,99.90
2022-09-16T05:51:49.140Z,99.90
2022-09-16T05:54:18.325Z,99.90
2022-09-16T05:56:45.576Z,99.90
2022-09-16T05:59:13.525Z,99.90
2022-09-16T06:01:40.434Z,99.90
2022-09-16T06:04:10.886Z,99.90
2022-09-16T06:06:45.723Z,99.90
2022-09-16T06:09:18.148Z,99.90
2022-09-16T06:11:47.241Z,99.90
2022-09-16T06:14:15.396Z,99.90
2022-09-16T06:16:42.156Z,99.90
2022-09-16T06:19:13.127Z,99.90
2022-09-16T06:21:40.930Z,99.90
2022-09-16T06:24:09.151Z,99.90
2022-09-16T06:26:38.338Z,99.90
2022-09-16T06:29:08.304Z,99.90
2022-09-16T06:31:36.560Z,99.90
2022-09-16T06:34:04.060Z,99.90
2022-09-16T06:36:33.662Z,99.90
2022-09-16T06:39:00.315Z,99.90
2022-09-16T06:41:26.987Z,99.90
2022-09-16T06:43:54.129Z,99.90
2022-09-16T06:46:26.742Z,99.90
2022-09-16T06:48:58.622Z,99.90
2022-09-16T06:51:29.291Z,99.90
2022-09-16T06:54:01.628Z,99.90
2022-09-16T06:56:28.349Z,99.90
2022-09-16T06:58:55.898Z,99.90
2022-09-16T07:01:25.671Z,99.90
2022-09-16T07:03:54.249Z,99.90
2022-09-16T07:06:29.613Z,99.90
2022-09-16T07:09:05.327Z,99.90
2022-09-16T07:11:32.350Z,99.90
2022-09-16T07:14:00.350Z,99.90
2022-09-16T07:16:27.368Z,99.90
2022-09-16T07:19:00.626Z,99.90
2022-09-16T07:21:30.258Z,99.90
2022-09-16T07:23:59.140Z,99.90
2022-09-16T07:26:33.467Z,99.90
2022-09-16T07:29:02.105Z,99.90
2022-09-16T07:31:31.716Z,99.90
2022-09-16T07:34:04.185Z,99.10
2022-09-16T07:36:43.280Z,98.90
2022-09-16T07:39:12.671Z,97.70
2022-09-16T07:41:42.050Z,97.50
2022-09-16T07:44:12.312Z,97.00
2022-09-16T07:46:39.350Z,95.40
2022-09-16T07:49:08.029Z,94.60
2022-09-16T07:51:35.360Z,94.20
2022-09-16T07:54:06.176Z,94.20
2022-09-16T07:56:35.478Z,93.40
2022-09-16T07:59:04.434Z,91.70
2022-09-16T08:01:31.511Z,91.90
2022-09-16T08:03:59.747Z,86.80
2022-09-16T08:06:29.067Z,77.20
2022-09-16T08:09:02.493Z,67.80
2022-09-16T08:11:37.677Z,82.30
2022-09-16T08:14:04.396Z,91.70
2022-09-16T08:16:32.192Z,94.30
2022-09-16T08:18:59.235Z,96.20
2022-09-16T08:21:28.992Z,97.50
2022-09-16T08:23:56.965Z,98.60
2022-09-16T08:26:25.096Z,99.20
2022-09-16T08:29:07.955Z,99.30
2022-09-16T08:31:35.387Z,98.10
2022-09-16T08:34:02.113Z,95.10
2022-09-16T08:36:28.804Z,93.70
2022-09-16T08:38:56.679Z,92.40
2022-09-16T08:41:42.161Z,93.70
2022-09-16T08:44:22.447Z,95.10
2022-09-16T08:46:57.277Z,96.40
2022-09-16T08:49:41.307Z,96.30
2022-09-16T08:52:18.700Z,96.30
2022-09-16T08:54:58.600Z,96.60
2022-09-16T08:57:32.078Z,98.30
2022-09-16T09:00:07.818Z,99.10
2022-09-16T09:02:48.633Z,99.00
2022-09-16T09:05:47.322Z,99.40
2022-09-16T09:08:35.365Z,99.50
2022-09-16T09:11:23.735Z,95.20
2022-09-16T09:13:50.790Z,95.40
2022-09-16T09:16:20.304Z,94.70
2022-09-16T09:19:15.436Z,93.70
2022-09-16T09:22:17.325Z,92.40
2022-09-16T09:25:09.312Z,93.60
2022-09-16T09:28:01.133Z,93.30
2022-09-16T09:30:28.989Z,90.40
2022-09-16T09:33:04.781Z,89.00
2022-09-16T09:35:50.550Z,90.70
2022-09-16T09:38:41.381Z,91.60
2022-09-16T09:41:11.573Z,89.00
2022-09-16T09:43:57.429Z,85.90
2022-09-16T09:46:29.512Z,81.90
2022-09-16T09:49:27.835Z,68.20
2022-09-16T09:52:01.193Z,63.20
2022-09-16T09:54:34.489Z,67.80
2022-09-16T09:57:23.253Z,65.40
2022-09-16T10:00:12.796Z,68.00
2022-09-16T10:02:44.944Z,74.50
2022-09-16T10:05:23.312Z,75.00
2022-09-16T10:07:52.329Z,74.50
2022-09-16T10:10:24.800Z,71.90
2022-09-16T10:12:52.531Z,69.70
2022-09-16T10:15:29.021Z,70.30
2022-09-16T10:17:59.248Z,64.30
2022-09-16T10:20:36.777Z,62.30
2022-09-16T10:23:11.384Z,56.00
2022-09-16T10:25:38.557Z,61.80
2022-09-16T10:28:17.647Z,76.20
2022-09-16T10:30:48.643Z,86.10
2022-09-16T10:33:18.369Z,91.30
2022-09-16T10:35:55.480Z,94.00
2022-09-16T10:38:24.390Z,94.00
2022-09-16T10:40:55.877Z,91.40
2022-09-16T10:43:23.176Z,89.50
2022-09-16T10:45:53.250Z,90.00
2022-09-16T10:48:27.211Z,87.70
2022-09-16T10:51:03.472Z,88.60
2022-09-16T10:53:39.392Z,88.10
2022-09-16T10:56:18.088Z,89.80
2022-09-16T10:58:44.968Z,91.30
2022-09-16T11:01:34.186Z,89.10
2022-09-16T11:04:30.774Z,75.70
2022-09-16T11:07:24.809Z,67.90
2022-09-16T11:10:05.791Z,63.40
2022-09-16T11:12:53.817Z,77.90
2022-09-16T11:15:48.400Z,85.90
2022-09-16T11:18:54.123Z,91.30
2022-09-16T11:22:03.560Z,93.20
2022-09-16T11:25:04.984Z,93.90
2022-09-16T11:27:53.400Z,93.60
2022-09-16T11:30:25.559Z,93.30
2022-09-16T11:33:25.591Z,94.10
2022-09-16T11:36:23.372Z,94.00
2022-09-16T11:39:22.216Z,90.10
2022-09-16T11:42:16.776Z,85.90
2022-09-16T11:45:16.295Z,80.50
2022-09-16T11:48:12.768Z,85.00
2022-09-16T11:51:02.608Z,73.70
2022-09-16T11:53:42.959Z,80.10
2022-09-16T11:56:29.319Z,82.50
2022-09-16T11:59:12.260Z,83.20
2022-09-16T12:01:51.762Z,86.30
2022-09-16T12:04:37.718Z,86.00
2022-09-16T12:07:10.840Z,90.40
2022-09-16T12:09:57.065Z,92.00
2022-09-16T12:12:31.429Z,93.80
2022-09-16T12:15:12.921Z,94.80
2022-09-16T12:17:48.405Z,94.10
2022-09-16T12:20:20.521Z,94.00
2022-09-16T12:23:02.087Z,90.00
2022-09-16T12:25:44.219Z,92.00
2022-09-16T12:28:19.236Z,93.40
2022-09-16T12:30:52.802Z,98.10
2022-09-16T12:33:27.853Z,99.90
2022-09-16T12:36:00.039Z,99.00
2022-09-16T12:38:27.303Z,97.40
2022-09-16T12:41:09.263Z,96.00
2022-09-16T12:43:46.284Z,96.80
2022-09-16T12:46:35.086Z,96.20
2022-09-16T12:49:13.888Z,93.90
2022-09-16T12:51:58.681Z,92.90
2022-09-16T12:55:06.601Z,84.10
2022-09-16T12:57:43.637Z,75.60
2022-09-16T13:00:19.638Z,80.60
2022-09-16T13:02:51.382Z,75.00
2022-09-16T13:05:20.444Z,72.10
2022-09-16T13:07:56.020Z,72.90
2022-09-16T13:10:46.851Z,74.90
2022-09-16T13:13:24.496Z,67.00
2022-09-16T13:15:59.828Z,66.60
2022-09-16T13:18:40.165Z,65.30
2022-09-16T13:21:17.632Z,64.60
2022-09-16T13:23:47.770Z,64.00
2022-09-16T13:26:14.954Z,62.00
2022-09-16T13:28:44.093Z,63.70
2022-09-16T13:31:18.097Z,62.90
2022-09-16T13:33:46.298Z,62.40
2022-09-16T13:36:25.364Z,59.80
2022-09-16T13:39:02.244Z,61.70
2022-09-16T13:41:37.740Z,61.50
2022-09-16T13:44:39.082Z,60.30
2022-09-16T13:47:14.760Z,62.30
2022-09-16T13:49:58.535Z,64.30
2022-09-16T13:52:28.331Z,65.50
2022-09-16T13:55:12.725Z,67.00
2022-09-16T13:57:48.562Z,68.50
2022-09-16T14:00:22.652Z,70.60
2022-09-16T14:03:39.664Z,73.80
2022-09-16T14:06:24.163Z,76.00
2022-09-16T14:09:21.724Z,79.40
2022-09-16T14:11:57.034Z,79.90
2022-09-16T14:17:24.321Z,76.30
2022-09-16T14:19:57.500Z,69.40
2022-09-16T14:22:27.283Z,65.70
2022-09-16T14:25:06.920Z,58.10
2022-09-16T14:27:40.802Z,51.60
2022-09-16T14:30:18.013Z,48.10
2022-09-16T14:32:46.315Z,47.50
2022-09-16T14:35:20.038Z,44.80
2022-09-16T14:37:50.170Z,45.80
2022-09-16T14:40:21.689Z,45.50
2022-09-16T14:43:13.842Z,46.20
2022-09-16T14:45:46.663Z,45.20
2022-09-16T14:48:18.409Z,47.60
2022-09-16T14:50:48.202Z,48.00
2022-09-16T14:53:35.309Z,49.20
2022-09-16T14:56:04.090Z,49.90
2022-09-16T14:58:33.182Z,49.40
2022-09-16T15:01:13.214Z,47.50
2022-09-16T15:03:55.338Z,46.60
2022-09-16T15:06:25.694Z,48.80
2022-09-16T15:09:27.539Z,53.20
2022-09-16T15:11:58.466Z,53.90
2022-09-16T15:14:30.101Z,53.70
2022-09-16T15:17:03.330Z,55.10
2022-09-16T15:19:38.994Z,55.60
2022-09-16T15:22:09.401Z,55.50
2022-09-16T15:24:41.631Z,54.90
2022-09-16T15:27:09.401Z,49.80
2022-09-16T15:29:47.456Z,43.70
2022-09-16T15:32:20.925Z,40.70
2022-09-16T15:34:48.101Z,36.30
2022-09-16T15:37:33.695Z,34.00
2022-09-16T15:40:20.689Z,34.20
2022-09-16T15:43:11.883Z,34.80
2022-09-16T15:45:41.949Z,36.40
2022-09-16T15:48:19.293Z,36.20
2022-09-16T15:50:50.960Z,37.50
2022-09-16T15:53:35.613Z,41.00
2022-09-16T15:56:09.084Z,45.30
2022-09-16T15:58:39.784Z,43.00
2022-09-16T16:01:37.422Z,36.20
2022-09-16T16:04:10.526Z,33.10
2022-09-16T16:06:55.812Z,31.80
2022-09-16T16:09:29.730Z,30.50
2022-09-16T16:11:57.515Z,30.40
2022-09-16T16:14:32.256Z,29.80
2022-09-16T16:17:13.950Z,28.90
2022-09-16T16:19:46.617Z,28.50
2022-09-16T16:22:17.147Z,30.40
2022-09-16T16:24:44.121Z,33.00
2022-09-16T16:27:10.801Z,35.20
2022-09-16T16:29:39.021Z,37.10
2022-09-16T16:32:11.257Z,39.30
2022-09-16T16:34:41.787Z,40.60
2022-09-16T16:37:27.998Z,42.00
2022-09-16T16:39:59.869Z,43.50
2022-09-16T16:42:28.773Z,45.30
2022-09-16T16:44:56.711Z,46.30
2022-09-16T16:47:23.916Z,46.60
2022-09-16T16:49:51.731Z,46.40
2022-09-16T16:52:18.741Z,46.60
2022-09-16T16:54:45.867Z,47.60
2022-09-16T16:57:12.708Z,48.60
2022-09-16T16:59:39.532Z,49.30
2022-09-16T17:02:09.281Z,50.30
2022-09-16T17:04:36.706Z,50.70
2022-09-16T17:07:24.764Z,51.50
2022-09-16T17:09:50.229Z,51.40
2022-09-16T17:12:18.198Z,52.10
2022-09-16T17:14:44.999Z,51.30
2022-09-16T17:17:11.677Z,52.20
2022-09-16T17:19:38.381Z,53.60
2022-09-16T17:22:05.072Z,53.30
2022-09-16T17:24:31.717Z,53.40
2022-09-16T17:26:58.369Z,54.50
2022-09-16T17:29:25.045Z,55.90
2022-09-16T17:31:52.122Z,56.40
2022-09-16T17:34:18.756Z,57.20
2022-09-16T17:36:47.487Z,58.40
2022-09-16T17:39:19.086Z,58.90
2022-09-16T17:41:48.699Z,61.40
2022-09-16T17:44:16.759Z,61.40
2022-09-16T17:46:44.453Z,62.40
2022-09-16T17:49:22.384Z,62.90
2022-09-16T17:51:53.406Z,63.90
2022-09-16T17:54:20.312Z,65.50
2022-09-16T17:56:47.440Z,65.40
2022-09-16T17:59:17.032Z,65.30
2022-09-16T18:01:43.761Z,65.80
2022-09-16T18:04:11.097Z,65.70
2022-09-16T18:06:43.702Z,65.90
2022-09-16T18:09:11.228Z,68.60
2022-09-16T18:11:38.804Z,69.60
2022-09-16T18:14:07.924Z,66.90
2022-09-16T18:16:35.592Z,65.50
2022-09-16T18:19:04.174Z,64.30
2022-09-16T18:21:31.953Z,63.80
2022-09-16T18:24:00.722Z,63.90
2022-09-16T18:26:27.997Z,64.40
2022-09-16T18:29:12.382Z,64.90
2022-09-16T18:31:45.116Z,65.70
2022-09-16T18:34:12.929Z,66.90
2022-09-16T18:36:40.200Z,68.10
2022-09-16T18:39:10.852Z,69.10
2022-09-16T18:41:39.368Z,71.40
2022-09-16T18:44:11.335Z,77.70
2022-09-16T18:46:38.850Z,80.40
2022-09-16T18:49:06.680Z,85.50
2022-09-16T18:51:36.098Z,87.30
2022-09-16T18:54:06.192Z,89.10
2022-09-16T18:56:35.313Z,90.50
2022-09-16T18:59:21.157Z,92.00
2022-09-16T19:01:49.847Z,94.30
2022-09-16T19:04:19.121Z,95.40
2022-09-16T19:06:48.918Z,95.60
2022-09-16T19:09:18.904Z,95.50
2022-09-16T19:11:46.073Z,95.50
2022-09-16T19:14:13.931Z,95.50
2022-09-16T19:16:44.767Z,95.70
2022-09-16T19:19:13.599Z,95.50
2022-09-16T19:21:41.424Z,95.00
2022-09-16T19:24:14.026Z,94.60
2022-09-16T19:26:42.141Z,95.10
2022-09-16T19:29:09.236Z,95.00
2022-09-16T19:31:40.211Z,95.00
2022-09-16T19:34:07.036Z,95.70
2022-09-16T19:36:35.520Z,95.70
2022-09-16T19:39:03.568Z,95.60
2022-09-16T19:41:32.528Z,95.80
2022-09-16T19:44:05.301Z,95.80
2022-09-16T19:46:36.131Z,96.40
2022-09-16T19:49:03.802Z,97.10
2022-09-16T19:51:30.456Z,97.60
2022-09-16T19:53:58.531Z,97.90
2022-09-16T19:56:27.516Z,97.90
2022-09-16T19:58:54.758Z,98.10
2022-09-16T20:01:26.951Z,98.00
2022-09-16T20:03:54.585Z,98.40
2022-09-16T20:06:22.716Z,98.20
2022-09-16T20:08:53.809Z,98.50
2022-09-16T20:11:23.906Z,98.60
2022-09-16T20:13:53.195Z,99.10
2022-09-16T20:16:22.047Z,98.80
2022-09-16T20:18:49.059Z,99.00
2022-09-16T20:21:18.686Z,99.10
2022-09-16T20:23:46.480Z,99.30
2022-09-16T20:26:19.363Z,99.50
2022-09-16T20:28:50.961Z,99.60
2022-09-16T20:31:21.284Z,99.60
2022-09-16T20:33:48.957Z,99.60
2022-09-16T20:36:17.153Z,99.60
2022-09-16T20:38:44.589Z,99.70
2022-09-16T20:41:18.344Z,99.90
2022-09-16T20:43:46.361Z,99.90
2022-09-16T20:46:20.570Z,99.80
2022-09-16T20:48:48.294Z,99.90
2022-09-16T20:51:19.849Z,99.90
2022-09-16T20:54:08.616Z,99.90
2022-09-16T20:56:39.532Z,99.90
2022-09-16T20:59:08.190Z,99.90
2022-09-16T21:01:36.812Z,99.90
2022-09-16T21:04:05.669Z,99.90
2022-09-16T21:06:34.895Z,99.90
2022-09-16T21:09:05.361Z,99.90
2022-09-16T21:11:33.195Z,99.90
2022-09-16T21:14:06.492Z,99.90
2022-09-16T21:16:34.946Z,99.90
2022-09-16T21:19:04.147Z,99.90
2022-09-16T21:21:31.606Z,99.90
2022-09-16T21:24:07.232Z,99.90
2022-09-16T21:26:35.608Z,99.90
2022-09-16T21:29:11.397Z,99.90
2022-09-16T21:31:40.615Z,99.90
2022-09-16T21:34:11.578Z,99.90
2022-09-16T21:36:40.348Z,99.90
2022-09-16T21:39:08.528Z,99.90
2022-09-16T21:41:35.518Z,99.90
2022-09-16T21:44:03.840Z,99.90
2022-09-16T21:46:41.509Z,99.90
2022-09-16T21:49:22.815Z,99.90
2022-09-16T21:51:53.483Z,99.90
2022-09-16T21:54:20.790Z,99.90
2022-09-16T21:56:48.325Z,99.90
2022-09-16T21:59:15.482Z,99.90
2022-09-16T22:01:42.341Z,99.90
2022-09-16T22:04:15.113Z,99.90
2022-09-16T22:06:42.754Z,99.90
2022-09-16T22:09:11.095Z,99.90
2022-09-16T22:11:40.951Z,99.90
2022-09-16T22:14:08.343Z,99.90
2022-09-16T22:16:37.464Z,99.90
2022-09-16T22:19:16.449Z,99.90
2022-09-16T22:21:45.601Z,99.90
2022-09-16T22:24:12.984Z,99.90
2022-09-16T22:26:40.082Z,99.90
2022-09-16T22:29:09.118Z,99.90
2022-09-16T22:31:38.325Z,99.90
2022-09-16T22:34:05.101Z,99.90
2022-09-16T22:36:34.186Z,99.90
2022-09-16T22:39:05.224Z,99.90
2022-09-16T22:41:33.457Z,99.90
2022-09-16T22:44:00.726Z,99.90
2022-09-16T22:46:30.715Z,99.90
2022-09-16T22:48:58.663Z,99.90
2022-09-16T22:51:31.070Z,99.90
2022-09-16T22:53:57.772Z,99.90
2022-09-16T22:56:27.105Z,99.90
2022-09-16T22:58:55.865Z,99.90
2022-09-16T23:01:26.184Z,99.90
2022-09-16T23:03:55.417Z,99.90
2022-09-16T23:06:24.689Z,99.90
2022-09-16T23:08:51.958Z,99.90
2022-09-16T23:11:21.173Z,99.90
2022-09-16T23:13:50.283Z,99.90
2022-09-16T23:16:20.726Z,99.90
2022-09-16T23:18:48.996Z,99.90
2022-09-16T23:21:18.745Z,99.90
2022-09-16T23:23:50.831Z,99.90
2022-09-16T23:26:22.864Z,99.90
2022-09-16T23:28:57.826Z,99.90
2022-09-16T23:31:33.964Z,99.90
2022-09-16T23:34:01.173Z,99.90
2022-09-16T23:36:28.757Z,99.90
2022-09-16T23:38:55.870Z,99.90
2022-09-16T23:41:27.590Z,99.90
2022-09-16T23:43:56.190Z,99.90
2022-09-16T23:46:25.313Z,99.90
2022-09-16T23:48:52.198Z,99.90
2022-09-16T23:51:25.851Z,99.90
2022-09-16T23:53:55.863Z,99.90
2022-09-16T23:56:23.090Z,99.90
2022-09-16T23:58:51.034Z,99.90
